createdAt,value
2023-05-02T00:01:39.886Z,61.71
2023-05-02T00:04:11.477Z,61.73
2023-05-02T00:06:43.208Z,61.50
2023-05-02T00:09:15.780Z,61.18
2023-05-02T00:11:47.246Z,60.89
2023-05-02T00:14:18.624Z,60.59
2023-05-02T00:16:50.100Z,60.33
2023-05-02T00:19:21.595Z,60.17
2023-05-02T00:21:53.419Z,59.96
2023-05-02T00:24:24.810Z,59.81
2023-05-02T00:26:56.386Z,59.70
2023-05-02T00:29:27.759Z,59.58
2023-05-02T00:31:59.137Z,59.60
2023-05-02T00:34:31.607Z,59.57
2023-05-02T00:37:03.121Z,59.53
2023-05-02T00:39:35.299Z,59.56
2023-05-02T00:42:06.860Z,59.71
2023-05-02T00:44:38.600Z,59.64
2023-05-02T00:47:09.939Z,59.70
2023-05-02T00:49:41.311Z,59.79
2023-05-02T00:52:12.676Z,59.83
2023-05-02T00:54:45.132Z,59.82
2023-05-02T00:57:16.604Z,59.76
2023-05-02T00:59:48.030Z,59.76
2023-05-02T01:02:24.010Z,59.83
2023-05-02T01:04:57.705Z,59.73
2023-05-02T01:07:33.219Z,59.72
2023-05-02T01:10:07.853Z,59.80
2023-05-02T01:12:42.587Z,59.83
2023-05-02T01:15:17.963Z,59.90
2023-05-02T01:17:50.638Z,59.79
2023-05-02T01:20:24.286Z,59.77
2023-05-02T01:22:58.275Z,59.65
2023-05-02T01:25:32.889Z,59.57
2023-05-02T01:28:06.384Z,59.43
2023-05-02T01:30:39.836Z,59.28
2023-05-02T01:33:12.547Z,59.11
2023-05-02T01:35:45.013Z,59.08
2023-05-02T01:38:18.578Z,59.00
2023-05-02T01:40:54.095Z,58.92
2023-05-02T01:43:26.035Z,58.84
2023-05-02T01:45:58.757Z,58.78
2023-05-02T01:48:30.413Z,58.69
2023-05-02T01:51:04.281Z,58.70
2023-05-02T01:53:37.063Z,58.69
2023-05-02T01:56:09.059Z,58.66
2023-05-02T01:58:41.425Z,58.72
2023-05-02T02:01:13.952Z,58.82
2023-05-02T02:03:46.925Z,58.81
2023-05-02T02:06:19.187Z,58.82
2023-05-02T02:08:51.145Z,58.80
2023-05-02T02:11:25.044Z,58.73
2023-05-02T02:13:58.957Z,58.68
2023-05-02T02:16:34.306Z,58.78
2023-05-02T02:19:07.661Z,58.76
2023-05-02T02:21:41.302Z,58.74
2023-05-02T02:24:13.235Z,58.85
2023-05-02T02:26:44.896Z,59.13
2023-05-02T02:29:16.570Z,59.13
2023-05-02T02:31:48.110Z,59.05
2023-05-02T02:34:19.697Z,58.89
2023-05-02T02:36:52.745Z,58.82
2023-05-02T02:39:27.497Z,58.69
2023-05-02T02:42:03.807Z,58.62
2023-05-02T02:44:38.223Z,58.87
2023-05-02T02:47:12.335Z,59.25
2023-05-02T02:49:48.562Z,59.54
2023-05-02T02:52:22.263Z,59.50
2023-05-02T02:54:55.288Z,59.32
2023-05-02T02:57:28.242Z,59.10
2023-05-02T03:00:03.719Z,58.95
2023-05-02T03:02:37.308Z,58.93
2023-05-02T03:05:09.512Z,58.91
2023-05-02T03:07:41.067Z,58.83
2023-05-02T03:10:12.663Z,58.74
2023-05-02T03:12:44.552Z,58.70
2023-05-02T03:15:19.582Z,58.66
2023-05-02T03:17:51.232Z,58.74
2023-05-02T03:20:23.755Z,58.88
2023-05-02T03:22:55.278Z,59.04
2023-05-02T03:25:26.796Z,59.10
2023-05-02T03:27:59.464Z,59.13
2023-05-02T03:30:31.141Z,59.13
2023-05-02T03:33:04.909Z,59.24
2023-05-02T03:35:36.522Z,59.26
2023-05-02T03:38:08.024Z,59.31
2023-05-02T03:40:40.577Z,59.41
2023-05-02T03:43:13.423Z,59.57
2023-05-02T03:45:46.147Z,59.62
2023-05-02T03:48:18.845Z,59.78
2023-05-02T03:50:54.547Z,59.81
2023-05-02T03:53:26.118Z,59.87
2023-05-02T03:55:58.340Z,59.92
2023-05-02T03:58:31.516Z,59.85
2023-05-02T04:01:03.751Z,59.85
2023-05-02T04:03:35.617Z,59.86
2023-05-02T04:06:08.430Z,59.75
2023-05-02T04:08:40.110Z,59.57
2023-05-02T04:11:11.768Z,59.42
2023-05-02T04:13:43.348Z,59.28
2023-05-02T04:16:15.876Z,59.14
2023-05-02T04:18:47.480Z,59.09
2023-05-02T04:21:19.379Z,58.99
2023-05-02T04:23:51.707Z,58.89
2023-05-02T04:26:23.766Z,58.75
2023-05-02T04:28:56.954Z,58.70
2023-05-02T04:31:28.912Z,58.64
2023-05-02T04:34:00.512Z,58.60
2023-05-02T04:36:36.028Z,58.54
2023-05-02T04:39:08.574Z,58.47
2023-05-02T04:41:41.824Z,58.41
2023-05-02T04:44:13.385Z,58.23
2023-05-02T04:46:46.212Z,58.22
2023-05-02T04:49:18.308Z,58.14
2023-05-02T04:51:49.901Z,58.10
2023-05-02T04:54:21.488Z,58.02
2023-05-02T04:56:53.068Z,57.98
2023-05-02T04:59:25.067Z,57.92
2023-05-02T05:01:57.144Z,57.83
2023-05-02T05:04:29.644Z,57.79
2023-05-02T05:07:01.767Z,57.73
2023-05-02T05:09:33.448Z,57.69
2023-05-02T05:12:05.458Z,57.65
2023-05-02T05:14:38.862Z,57.72
2023-05-02T05:17:11.610Z,57.68
2023-05-02T05:19:47.347Z,57.62
2023-05-02T05:22:22.351Z,57.53
2023-05-02T05:24:54.717Z,57.55
2023-05-02T05:27:27.895Z,57.41
2023-05-02T05:29:59.782Z,57.17
2023-05-02T05:32:34.230Z,57.13
2023-05-02T05:35:06.616Z,56.97
2023-05-02T05:37:39.648Z,56.99
2023-05-02T05:40:13.008Z,57.05
2023-05-02T05:42:46.422Z,56.95
2023-05-02T05:45:20.375Z,56.59
2023-05-02T05:47:52.300Z,56.38
2023-05-02T05:50:24.224Z,56.47
2023-05-02T05:52:58.782Z,56.62
2023-05-02T05:55:30.561Z,56.41
2023-05-02T05:58:02.093Z,56.31
2023-05-02T06:00:35.274Z,55.48
2023-05-02T06:03:09.541Z,55.23
2023-05-02T06:05:40.869Z,54.66
2023-05-02T06:08:15.306Z,54.73
2023-05-02T06:10:49.602Z,55.06
2023-05-02T06:13:26.359Z,54.13
2023-05-02T06:15:59.490Z,53.77
2023-05-02T06:18:31.116Z,53.22
2023-05-02T06:21:06.058Z,53.17
2023-05-02T06:23:40.688Z,53.57
2023-05-02T06:26:12.415Z,52.78
2023-05-02T06:28:44.516Z,52.32
2023-05-02T06:31:16.595Z,52.71
2023-05-02T06:33:48.212Z,52.34
2023-05-02T06:36:19.720Z,52.29
2023-05-02T06:38:51.389Z,51.80
2023-05-02T06:41:23.675Z,51.60
2023-05-02T06:43:55.409Z,52.26
2023-05-02T06:46:28.357Z,52.23
2023-05-02T06:48:59.974Z,49.73
2023-05-02T06:51:32.023Z,46.18
2023-05-02T06:54:03.824Z,43.79
2023-05-02T06:56:35.370Z,37.42
2023-05-02T06:59:06.901Z,33.87
2023-05-02T07:01:38.706Z,35.98
2023-05-02T07:04:10.374Z,31.32
2023-05-02T07:06:42.300Z,31.27
2023-05-02T07:09:13.934Z,30.66
2023-05-02T07:11:45.506Z,30.67
2023-05-02T07:14:17.152Z,31.95
2023-05-02T07:16:48.867Z,31.35
2023-05-02T07:19:20.481Z,30.58
2023-05-02T07:21:51.962Z,31.96
2023-05-02T07:24:23.471Z,31.76
2023-05-02T07:29:26.267Z,31.87
2023-05-02T07:31:57.868Z,26.92
2023-05-02T07:34:29.541Z,27.60
2023-05-02T07:37:01.103Z,27.05
2023-05-02T07:39:34.293Z,26.56
2023-05-02T07:42:06.773Z,28.14
2023-05-02T07:44:38.625Z,28.73
2023-05-02T07:47:10.793Z,25.74
2023-05-02T07:49:42.274Z,25.83
2023-05-02T07:52:13.942Z,25.12
2023-05-02T07:54:45.732Z,24.01
2023-05-02T07:57:17.491Z,26.38
2023-05-02T07:59:49.272Z,25.88
2023-05-02T08:02:21.894Z,25.69
2023-05-02T08:04:54.271Z,23.14
2023-05-02T08:07:26.294Z,23.54
2023-05-02T08:09:57.881Z,24.41
2023-05-02T08:12:29.461Z,24.30
2023-05-02T08:15:00.981Z,23.40
2023-05-02T08:17:32.852Z,24.86
2023-05-02T08:20:04.775Z,25.69
2023-05-02T08:22:36.348Z,24.77
2023-05-02T08:25:08.322Z,23.02
2023-05-02T08:27:39.865Z,21.34
2023-05-02T08:30:11.903Z,20.57
2023-05-02T08:32:43.516Z,19.78
2023-05-02T08:35:15.127Z,19.40
2023-05-02T08:37:46.679Z,21.13
2023-05-02T08:40:27.316Z,21.39
2023-05-02T08:42:52.961Z,21.27
2023-05-02T08:45:24.900Z,21.66
2023-05-02T08:47:57.455Z,19.81
2023-05-02T08:50:29.984Z,18.52
2023-05-02T08:53:01.828Z,21.59
2023-05-02T08:55:33.837Z,22.34
2023-05-02T08:58:05.338Z,21.56
2023-05-02T09:00:39.697Z,19.67
2023-05-02T09:03:14.000Z,18.51
2023-05-02T09:05:47.292Z,21.30
2023-05-02T09:08:21.813Z,22.19
2023-05-02T09:10:53.529Z,20.07
2023-05-02T09:13:32.023Z,20.55
2023-05-02T09:16:04.507Z,21.54
2023-05-02T09:18:36.576Z,17.85
2023-05-02T09:21:09.371Z,18.28
2023-05-02T09:23:41.697Z,19.41
2023-05-02T09:26:14.324Z,19.91
2023-05-02T09:28:46.650Z,20.68
2023-05-02T09:31:26.834Z,19.89
2023-05-02T09:33:52.218Z,19.11
2023-05-02T09:36:24.077Z,18.72
2023-05-02T09:38:57.148Z,20.44
2023-05-02T09:41:30.119Z,20.61
2023-05-02T09:44:01.640Z,18.63
2023-05-02T09:46:35.697Z,18.31
2023-05-02T09:49:07.590Z,18.98
2023-05-02T09:51:39.367Z,21.04
2023-05-02T09:54:11.596Z,20.88
2023-05-02T09:56:56.730Z,21.18
2023-05-02T09:59:28.457Z,21.26
2023-05-02T10:02:00.752Z,16.92
2023-05-02T10:04:33.649Z,16.53
2023-05-02T10:07:06.819Z,16.29
2023-05-02T10:09:39.790Z,18.84
2023-05-02T10:12:11.340Z,17.29
2023-05-02T10:14:44.359Z,17.57
2023-05-02T10:17:17.628Z,17.29
2023-05-02T10:19:52.169Z,19.07
2023-05-02T10:22:25.050Z,16.66
2023-05-02T10:24:58.255Z,17.58
2023-05-02T10:27:30.717Z,19.27
2023-05-02T10:30:04.307Z,18.41
2023-05-02T10:32:37.090Z,18.67
2023-05-02T10:35:09.286Z,19.15
2023-05-02T10:37:42.925Z,18.63
2023-05-02T10:40:14.783Z,19.72
2023-05-02T10:42:47.898Z,21.15
2023-05-02T10:45:32.865Z,21.87
2023-05-02T10:48:18.648Z,21.12
2023-05-02T10:50:52.045Z,21.81
2023-05-02T10:53:27.651Z,21.84
2023-05-02T10:56:26.391Z,21.70
2023-05-02T10:58:59.734Z,19.44
2023-05-02T11:01:41.901Z,17.93
2023-05-02T11:04:13.464Z,17.96
2023-05-02T11:07:02.303Z,18.70
2023-05-02T11:09:36.775Z,18.36
2023-05-02T11:12:08.704Z,19.03
2023-05-02T11:14:52.414Z,19.61
2023-05-02T11:17:25.124Z,19.82
2023-05-02T11:20:30.161Z,21.55
2023-05-02T11:23:04.038Z,22.54
2023-05-02T11:25:38.940Z,23.25
2023-05-02T11:28:12.033Z,23.70
2023-05-02T11:30:44.967Z,24.04
2023-05-02T11:33:17.773Z,24.17
2023-05-02T11:35:49.844Z,22.25
2023-05-02T11:38:22.516Z,21.04
2023-05-02T11:40:55.432Z,22.18
2023-05-02T11:43:29.372Z,18.62
2023-05-02T11:46:02.347Z,19.50
2023-05-02T11:48:34.243Z,20.68
2023-05-02T11:51:07.470Z,18.61
2023-05-02T11:53:40.658Z,21.21
2023-05-02T11:56:12.365Z,21.66
2023-05-02T11:58:44.451Z,21.87
2023-05-02T12:01:16.533Z,21.78
2023-05-02T12:03:49.685Z,22.10
2023-05-02T12:06:21.744Z,21.48
2023-05-02T12:08:55.013Z,21.51
2023-05-02T12:11:27.777Z,19.16
2023-05-02T12:14:02.613Z,19.70
2023-05-02T12:16:38.518Z,19.84
2023-05-02T12:19:13.180Z,21.41
2023-05-02T12:25:25.974Z,21.08
2023-05-02T12:28:46.707Z,19.00
2023-05-02T12:31:22.077Z,18.34
2023-05-02T12:33:55.361Z,19.16
2023-05-02T12:36:28.639Z,20.43
2023-05-02T12:39:01.666Z,21.23
2023-05-02T12:41:34.306Z,20.20
2023-05-02T12:44:06.416Z,21.44
2023-05-02T12:46:38.088Z,22.53
2023-05-02T12:49:12.355Z,23.49
2023-05-02T12:51:45.726Z,20.48
2023-05-02T12:54:22.696Z,22.48
2023-05-02T12:56:54.502Z,22.86
2023-05-02T13:02:25.228Z,22.05
2023-05-02T13:13:06.278Z,23.84
2023-05-02T13:15:37.829Z,21.87
2023-05-02T13:18:09.587Z,24.21
2023-05-02T13:20:41.328Z,23.43
2023-05-02T13:23:12.897Z,20.07
2023-05-02T13:25:44.440Z,21.14
2023-05-02T13:28:16.023Z,22.63
2023-05-02T13:30:47.685Z,23.44
2023-05-02T13:33:19.516Z,23.57
2023-05-02T13:35:51.126Z,23.39
2023-05-02T13:38:22.592Z,20.00
2023-05-02T13:40:55.880Z,23.18
2023-05-02T13:43:27.670Z,23.50
2023-05-02T13:45:59.355Z,24.12
2023-05-02T13:48:31.015Z,24.33
2023-05-02T13:51:03.793Z,24.40
2023-05-02T13:53:35.943Z,22.95
2023-05-02T13:56:08.112Z,20.88
2023-05-02T13:58:39.697Z,22.77
2023-05-02T14:01:11.350Z,24.45
2023-05-02T14:03:43.206Z,24.01
2023-05-02T14:06:14.865Z,23.55
2023-05-02T14:08:46.466Z,24.40
2023-05-02T14:11:18.044Z,24.08
2023-05-02T14:13:49.590Z,23.64
2023-05-02T14:16:23.814Z,23.19
2023-05-02T14:18:59.350Z,23.89
2023-05-02T14:21:32.617Z,22.86
2023-05-02T14:24:07.417Z,22.03
2023-05-02T14:26:40.490Z,23.25
2023-05-02T14:29:18.428Z,22.83
2023-05-02T14:31:51.216Z,24.36
2023-05-02T14:34:25.776Z,23.72
2023-05-02T14:38:07.778Z,22.90
2023-05-02T14:40:14.618Z,22.14
2023-05-02T14:42:59.952Z,23.24
2023-05-02T14:45:35.264Z,24.34
2023-05-02T14:48:14.321Z,23.87
2023-05-02T14:50:51.063Z,23.83
2023-05-02T14:53:25.322Z,23.39
2023-05-02T14:55:56.939Z,24.29
2023-05-02T14:58:28.500Z,24.52
2023-05-02T15:01:00.262Z,24.16
2023-05-02T15:03:32.062Z,24.66
2023-05-02T15:06:03.874Z,25.33
2023-05-02T15:08:37.392Z,25.71
2023-05-02T15:11:08.820Z,25.70
2023-05-02T15:13:56.714Z,25.27
2023-05-02T15:16:24.253Z,25.80
2023-05-02T15:18:55.061Z,26.18
2023-05-02T15:21:27.144Z,25.74
2023-05-02T15:23:59.059Z,26.19
2023-05-02T15:26:49.523Z,26.97
2023-05-02T15:29:22.100Z,26.97
2023-05-02T15:31:54.653Z,26.86
2023-05-02T15:34:26.195Z,26.28
2023-05-02T15:36:59.176Z,26.79
2023-05-02T15:39:30.834Z,26.88
2023-05-02T15:42:03.835Z,27.07
2023-05-02T15:44:39.276Z,27.53
2023-05-02T15:47:10.353Z,27.88
2023-05-02T15:49:55.900Z,27.91
2023-05-02T15:52:35.708Z,27.92
2023-05-02T15:55:16.655Z,28.03
2023-05-02T15:57:55.101Z,28.04
2023-05-02T16:00:31.151Z,27.84
2023-05-02T16:03:04.060Z,28.18
2023-05-02T16:05:36.218Z,28.28
2023-05-02T16:08:08.005Z,28.23
2023-05-02T16:10:41.993Z,28.14
2023-05-02T16:13:13.651Z,27.97
2023-05-02T16:15:45.377Z,27.54
2023-05-02T16:18:17.035Z,28.18
2023-05-02T16:20:54.389Z,28.27
2023-05-02T16:23:26.268Z,28.31
2023-05-02T16:26:02.000Z,28.62
2023-05-02T16:28:33.830Z,28.65
2023-05-02T16:31:08.173Z,28.14
2023-05-02T16:33:39.859Z,28.04
2023-05-02T16:36:11.959Z,28.34
2023-05-02T16:38:43.919Z,27.56
2023-05-02T16:41:15.575Z,28.11
2023-05-02T16:43:48.521Z,28.08
2023-05-02T16:46:20.404Z,27.93
2023-05-02T16:48:52.031Z,27.93
2023-05-02T16:51:23.903Z,28.11
2023-05-02T16:53:58.447Z,28.10
2023-05-02T16:56:43.141Z,28.12
2023-05-02T16:59:16.924Z,28.29
2023-05-02T17:01:49.871Z,28.40
2023-05-02T17:04:25.666Z,28.45
2023-05-02T17:06:57.333Z,28.20
2023-05-02T17:09:29.087Z,28.65
2023-05-02T17:12:07.800Z,28.75
2023-05-02T17:14:42.931Z,28.45
2023-05-02T17:17:14.527Z,28.54
2023-05-02T17:19:58.793Z,28.93
2023-05-02T17:23:01.706Z,29.04
2023-05-02T17:25:53.831Z,29.12
2023-05-02T17:28:28.584Z,29.08
2023-05-02T17:31:10.101Z,28.99
2023-05-02T17:33:43.518Z,29.17
2023-05-02T17:36:18.299Z,29.12
2023-05-02T17:38:50.056Z,29.13
2023-05-02T17:41:23.990Z,29.00
2023-05-02T17:43:55.828Z,29.15
2023-05-02T17:46:27.903Z,29.34
2023-05-02T17:49:06.240Z,29.25
2023-05-02T17:52:01.514Z,29.37
2023-05-02T17:54:33.862Z,29.42
2023-05-02T17:57:05.704Z,29.41
2023-05-02T17:59:41.633Z,29.52
2023-05-02T18:02:17.944Z,29.60
2023-05-02T18:04:50.064Z,29.51
2023-05-02T18:07:25.605Z,29.57
2023-05-02T18:09:57.447Z,29.65
2023-05-02T18:12:29.593Z,29.67
2023-05-02T18:15:02.244Z,29.75
2023-05-02T18:17:35.378Z,29.78
2023-05-02T18:20:09.717Z,29.73
2023-05-02T18:22:41.672Z,29.82
2023-05-02T18:25:15.064Z,29.87
2023-05-02T18:27:46.971Z,29.90
2023-05-02T18:30:20.354Z,29.93
2023-05-02T18:32:52.135Z,29.91
2023-05-02T18:35:24.113Z,29.95
2023-05-02T18:37:56.617Z,29.90
2023-05-02T18:40:32.422Z,29.96
2023-05-02T18:43:04.257Z,29.97
2023-05-02T18:45:36.334Z,29.96
2023-05-02T18:48:08.417Z,29.97
2023-05-02T18:50:40.583Z,30.01
2023-05-02T18:53:12.275Z,30.03
2023-05-02T18:55:43.797Z,30.09
2023-05-02T18:58:15.347Z,30.11
2023-05-02T19:00:49.018Z,30.14
2023-05-02T19:03:22.389Z,30.14
2023-05-02T19:05:54.029Z,30.15
2023-05-02T19:08:25.838Z,30.17
2023-05-02T19:10:57.551Z,30.19
2023-05-02T19:13:31.673Z,30.21
2023-05-02T19:16:10.324Z,30.21
2023-05-02T19:26:32.265Z,30.22
2023-05-02T22:25:24.497Z,32.71
2023-05-02T22:28:00.219Z,32.61
2023-05-02T22:30:32.028Z,32.55
2023-05-02T22:33:04.251Z,32.46
2023-05-02T22:35:36.054Z,32.62
2023-05-02T22:38:10.363Z,32.93
2023-05-02T22:40:42.189Z,32.51
2023-05-02T22:43:14.228Z,32.49
2023-05-02T22:45:50.166Z,32.62
2023-05-02T22:48:21.923Z,32.92
2023-05-02T22:50:54.631Z,32.71
2023-05-02T22:53:26.728Z,33.03
2023-05-02T22:55:58.561Z,33.16
2023-05-02T22:58:30.852Z,32.99
2023-05-02T23:01:06.280Z,33.02
2023-05-02T23:03:41.502Z,33.29
2023-05-02T23:06:14.301Z,33.39
2023-05-02T23:08:49.152Z,33.15
2023-05-02T23:11:21.537Z,33.12
2023-05-02T23:13:55.180Z,33.33
2023-05-02T23:16:27.330Z,33.19
2023-05-02T23:18:59.576Z,33.06
2023-05-02T23:21:31.608Z,33.27
2023-05-02T23:24:04.835Z,33.75
2023-05-02T23:26:37.897Z,33.76
2023-05-02T23:29:09.785Z,33.57
2023-05-02T23:31:42.052Z,33.63
2023-05-02T23:34:13.898Z,33.95
2023-05-02T23:36:45.775Z,34.04
2023-05-02T23:39:17.372Z,33.75
2023-05-02T23:41:48.902Z,33.91
2023-05-02T23:44:21.272Z,33.64
2023-05-02T23:46:52.849Z,34.01
2023-05-02T23:49:24.537Z,33.79
2023-05-02T23:51:56.078Z,33.68
2023-05-02T23:54:30.855Z,34.09
2023-05-02T23:57:03.418Z,34.26
2023-05-02T23:59:35.234Z,34.61
